createdAt,value
2022-10-01T00:01:24.404Z,9.71
2022-10-01T00:03:54.203Z,9.71
2022-10-01T00:06:24.223Z,9.72
2022-10-01T00:08:52.809Z,9.72
2022-10-01T00:11:23.957Z,9.72
2022-10-01T00:13:53.569Z,9.71
2022-10-01T00:16:25.955Z,9.71
2022-10-01T00:18:55.350Z,9.71
2022-10-01T00:21:25.743Z,9.71
2022-10-01T00:23:55.499Z,9.72
2022-10-01T00:26:27.762Z,9.74
2022-10-01T00:28:58.715Z,9.75
2022-10-01T00:31:28.308Z,9.77
2022-10-01T00:33:59.826Z,9.78
2022-10-01T00:36:28.696Z,9.79
2022-10-01T00:38:59.814Z,9.79
2022-10-01T00:41:30.736Z,9.80
2022-10-01T00:44:01.592Z,9.81
2022-10-01T00:46:38.965Z,9.83
2022-10-01T00:49:11.228Z,9.85
2022-10-01T00:51:44.941Z,9.87
2022-10-01T00:54:16.952Z,9.88
2022-10-01T00:56:46.446Z,9.90
2022-10-01T00:59:16.007Z,9.91
2022-10-01T01:01:44.782Z,9.93
2022-10-01T01:04:16.134Z,9.94
2022-10-01T01:06:47.017Z,9.95
2022-10-01T01:09:16.366Z,9.95
2022-10-01T01:11:52.953Z,9.95
2022-10-01T01:14:26.889Z,9.94
2022-10-01T01:17:00.169Z,9.95
2022-10-01T01:19:43.362Z,9.95
2022-10-01T01:22:14.206Z,9.94
2022-10-01T01:24:49.951Z,9.92
2022-10-01T01:27:34.175Z,9.91
2022-10-01T01:30:07.782Z,9.90
2022-10-01T01:32:45.625Z,9.89
2022-10-01T01:35:19.534Z,9.87
2022-10-01T01:37:53.666Z,9.85
2022-10-01T01:40:23.433Z,9.82
2022-10-01T01:42:55.471Z,9.78
2022-10-01T01:45:25.450Z,9.73
2022-10-01T01:47:56.937Z,9.67
2022-10-01T01:50:28.353Z,9.63
2022-10-01T01:52:59.075Z,9.60
2022-10-01T01:55:29.339Z,9.59
2022-10-01T01:57:58.339Z,9.55
2022-10-01T02:00:27.791Z,9.50
2022-10-01T02:02:57.468Z,9.46
2022-10-01T02:05:29.416Z,9.41
2022-10-01T02:08:23.441Z,9.38
2022-10-01T02:11:04.207Z,9.36
2022-10-01T02:13:47.159Z,9.34
2022-10-01T02:16:24.762Z,9.32
2022-10-01T02:19:01.089Z,9.29
2022-10-01T02:21:37.017Z,9.27
2022-10-01T02:24:13.145Z,9.24
2022-10-01T02:26:43.427Z,9.21
2022-10-01T02:29:16.009Z,9.18
2022-10-01T02:31:46.908Z,9.15
2022-10-01T02:34:20.273Z,9.10
2022-10-01T02:36:50.871Z,9.05
2022-10-01T02:39:22.353Z,8.99
2022-10-01T02:41:53.063Z,8.96
2022-10-01T02:44:27.450Z,8.92
2022-10-01T02:47:02.792Z,8.88
2022-10-01T02:49:32.890Z,8.85
2022-10-01T02:52:10.575Z,8.81
2022-10-01T02:58:20.046Z,8.75
2022-10-01T03:00:48.615Z,8.68
2022-10-01T03:03:17.136Z,8.66
2022-10-01T03:05:45.683Z,8.63
2022-10-01T03:08:14.157Z,8.60
2022-10-01T03:10:46.583Z,8.57
2022-10-01T03:13:16.480Z,8.52
2022-10-01T03:15:47.362Z,8.43
2022-10-01T03:18:15.996Z,8.36
2022-10-01T03:20:47.314Z,8.32
2022-10-01T03:23:16.035Z,8.27
2022-10-01T03:25:44.719Z,8.22
2022-10-01T03:28:13.321Z,8.17
2022-10-01T03:30:41.856Z,8.11
2022-10-01T03:33:10.363Z,8.06
2022-10-01T03:35:38.861Z,8.01
2022-10-01T03:38:07.752Z,7.96
2022-10-01T03:40:38.391Z,7.93
2022-10-01T03:43:06.927Z,7.89
2022-10-01T03:45:35.424Z,7.87
2022-10-01T03:48:04.023Z,7.87
2022-10-01T03:50:32.609Z,7.86
2022-10-01T03:53:01.071Z,7.85
2022-10-01T03:55:29.699Z,7.84
2022-10-01T03:57:58.268Z,7.84
2022-10-01T04:00:26.797Z,7.84
2022-10-01T04:02:55.327Z,7.82
2022-10-01T04:05:25.012Z,7.81
2022-10-01T04:07:53.491Z,7.80
2022-10-01T04:10:21.976Z,7.81
2022-10-01T04:12:51.177Z,7.84
2022-10-01T04:15:19.941Z,7.85
2022-10-01T04:17:48.538Z,7.88
2022-10-01T04:20:17.653Z,7.91
2022-10-01T04:22:46.564Z,7.92
2022-10-01T04:25:15.354Z,7.94
2022-10-01T04:27:56.078Z,7.96
2022-10-01T04:30:25.220Z,7.96
2022-10-01T04:32:54.098Z,7.96
2022-10-01T04:35:23.235Z,7.92
2022-10-01T04:37:58.607Z,7.87
2022-10-01T04:40:27.835Z,7.83
2022-10-01T04:42:56.722Z,7.78
2022-10-01T04:45:25.294Z,7.73
2022-10-01T04:47:55.108Z,7.71
2022-10-01T04:50:25.614Z,7.71
2022-10-01T04:52:54.693Z,7.71
2022-10-01T04:55:24.219Z,7.73
2022-10-01T04:57:52.810Z,7.75
2022-10-01T05:00:23.851Z,7.75
2022-10-01T05:02:53.081Z,7.74
2022-10-01T05:05:23.404Z,7.73
2022-10-01T05:07:51.976Z,7.70
2022-10-01T05:10:22.241Z,7.69
2022-10-01T05:12:51.489Z,7.70
2022-10-01T05:15:20.157Z,7.72
2022-10-01T05:17:49.200Z,7.74
2022-10-01T05:20:20.087Z,7.76
2022-10-01T05:22:49.046Z,7.79
2022-10-01T05:25:18.687Z,7.82
2022-10-01T05:27:47.292Z,7.82
2022-10-01T05:30:23.396Z,7.83
2022-10-01T05:32:55.936Z,7.83
2022-10-01T05:35:24.741Z,7.85
2022-10-01T05:38:00.824Z,7.87
2022-10-01T05:40:29.844Z,7.90
2022-10-01T05:42:59.464Z,7.95
2022-10-01T05:45:31.363Z,8.04
2022-10-01T05:48:01.529Z,8.11
2022-10-01T05:50:32.015Z,8.19
2022-10-01T05:53:01.159Z,8.26
2022-10-01T05:55:34.010Z,8.37
2022-10-01T05:58:04.503Z,8.51
2022-10-01T06:00:35.346Z,8.62
2022-10-01T06:03:14.337Z,8.77
2022-10-01T06:05:51.370Z,8.94
2022-10-01T06:08:23.686Z,9.14
2022-10-01T06:10:58.291Z,9.34
2022-10-01T06:13:26.779Z,9.56
2022-10-01T06:16:00.581Z,9.76
2022-10-01T06:18:29.304Z,10.03
2022-10-01T06:20:59.862Z,10.37
2022-10-01T06:23:29.995Z,10.71
2022-10-01T06:26:05.873Z,11.06
2022-10-01T06:28:43.324Z,11.47
2022-10-01T06:31:11.770Z,11.88
2022-10-01T06:33:40.283Z,12.27
2022-10-01T06:36:08.868Z,12.65
2022-10-01T06:38:37.321Z,12.96
2022-10-01T06:41:06.672Z,13.28
2022-10-01T06:43:35.122Z,13.60
2022-10-01T06:46:04.861Z,13.90
2022-10-01T06:48:35.799Z,14.26
2022-10-01T06:51:05.135Z,14.52
2022-10-01T06:53:33.946Z,14.74
2022-10-01T06:56:06.235Z,14.91
2022-10-01T06:58:35.137Z,15.19
2022-10-01T07:01:03.846Z,15.47
2022-10-01T07:03:32.590Z,15.78
2022-10-01T07:06:07.358Z,16.06
2022-10-01T07:08:35.961Z,16.21
2022-10-01T07:11:04.689Z,16.19
2022-10-01T07:13:33.376Z,16.14
2022-10-01T07:16:03.924Z,16.05
2022-10-01T07:18:32.414Z,15.92
2022-10-01T07:21:01.135Z,15.71
2022-10-01T07:23:29.669Z,15.53
2022-10-01T07:25:59.251Z,15.34
2022-10-01T07:28:28.102Z,15.12
2022-10-01T07:31:01.890Z,14.93
2022-10-01T07:33:30.533Z,14.78
2022-10-01T07:36:01.903Z,14.70
2022-10-01T07:38:30.891Z,14.59
2022-10-01T07:41:01.833Z,14.46
2022-10-01T07:43:30.673Z,14.37
2022-10-01T07:45:59.567Z,14.28
2022-10-01T07:48:28.274Z,14.23
2022-10-01T07:50:57.136Z,14.21
2022-10-01T07:53:25.693Z,14.13
2022-10-01T07:55:54.174Z,14.00
2022-10-01T07:58:23.390Z,13.89
2022-10-01T08:00:55.233Z,13.83
2022-10-01T08:03:23.066Z,13.80
2022-10-01T08:05:53.021Z,13.74
2022-10-01T08:08:21.316Z,13.72
2022-10-01T08:10:50.289Z,13.71
2022-10-01T08:13:19.776Z,13.72
2022-10-01T08:15:52.682Z,13.74
2022-10-01T08:18:21.417Z,13.76
2022-10-01T08:20:50.144Z,13.83
2022-10-01T08:23:18.781Z,13.90
2022-10-01T08:25:47.506Z,13.98
2022-10-01T08:28:18.938Z,14.03
2022-10-01T08:30:47.542Z,14.08
2022-10-01T08:33:16.107Z,14.09
2022-10-01T08:35:45.005Z,14.09
2022-10-01T08:38:13.788Z,14.11
2022-10-01T08:40:47.557Z,14.16
2022-10-01T08:43:35.791Z,14.21
2022-10-01T08:46:06.422Z,14.30
2022-10-01T08:48:45.120Z,14.38
2022-10-01T08:51:23.571Z,14.47
2022-10-01T08:53:55.715Z,14.56
2022-10-01T08:56:24.576Z,14.64
2022-10-01T08:58:58.431Z,14.72
2022-10-01T09:01:29.107Z,14.83
2022-10-01T09:03:58.679Z,14.89
2022-10-01T09:06:28.796Z,14.90
2022-10-01T09:09:12.319Z,14.92
2022-10-01T09:11:59.376Z,14.93
2022-10-01T09:14:53.378Z,14.99
2022-10-01T09:17:50.389Z,15.01
2022-10-01T09:20:32.862Z,15.03
2022-10-01T09:23:19.734Z,15.05
2022-10-01T09:25:53.709Z,15.08
2022-10-01T09:28:32.659Z,15.11
2022-10-01T09:31:16.155Z,15.14
2022-10-01T09:33:54.852Z,15.17
2022-10-01T09:36:36.665Z,15.19
2022-10-01T09:39:18.292Z,15.22
2022-10-01T09:41:51.415Z,15.21
2022-10-01T09:44:28.941Z,15.21
2022-10-01T09:46:59.873Z,15.22
2022-10-01T09:49:39.131Z,15.24
2022-10-01T09:52:17.798Z,15.28
2022-10-01T09:54:51.407Z,15.35
2022-10-01T09:57:26.400Z,15.42
2022-10-01T10:00:07.195Z,15.49
2022-10-01T10:02:39.331Z,15.54
2022-10-01T10:05:12.925Z,15.59
2022-10-01T10:07:46.108Z,15.66
2022-10-01T10:10:25.521Z,15.76
2022-10-01T10:13:01.101Z,15.85
2022-10-01T10:15:31.925Z,15.95
2022-10-01T10:18:06.920Z,16.05
2022-10-01T10:20:39.983Z,16.13
2022-10-01T10:23:13.825Z,16.18
2022-10-01T10:25:42.756Z,16.26
2022-10-01T10:28:20.569Z,16.37
2022-10-01T10:30:50.653Z,16.54
2022-10-01T10:33:21.335Z,16.66
2022-10-01T10:35:59.760Z,16.70
2022-10-01T10:38:31.091Z,16.75
2022-10-01T10:41:00.354Z,16.83
2022-10-01T10:43:33.472Z,16.91
2022-10-01T10:46:03.006Z,17.02
2022-10-01T10:48:36.921Z,17.11
2022-10-01T10:51:06.391Z,17.21
2022-10-01T10:53:43.652Z,17.32
2022-10-01T10:56:22.202Z,17.43
2022-10-01T10:58:51.638Z,17.49
2022-10-01T11:01:27.195Z,17.47
2022-10-01T11:03:59.165Z,17.41
2022-10-01T11:06:26.977Z,17.38
2022-10-01T11:09:04.067Z,17.30
2022-10-01T11:11:46.771Z,17.29
2022-10-01T11:14:27.900Z,17.26
2022-10-01T11:17:14.077Z,17.23
2022-10-01T11:20:01.181Z,17.26
2022-10-01T11:22:45.148Z,17.26
2022-10-01T11:25:28.635Z,17.25
2022-10-01T11:28:02.870Z,17.18
2022-10-01T11:30:41.987Z,17.10
2022-10-01T11:33:20.166Z,17.09
2022-10-01T11:35:57.545Z,17.08
2022-10-01T11:38:40.802Z,17.13
2022-10-01T11:41:27.849Z,17.16
2022-10-01T11:44:04.534Z,17.16
2022-10-01T11:46:42.585Z,17.15
2022-10-01T11:49:33.340Z,17.14
2022-10-01T11:52:10.231Z,17.12
2022-10-01T11:54:56.070Z,17.10
2022-10-01T11:57:44.977Z,17.01
2022-10-01T12:00:15.289Z,16.94
2022-10-01T12:02:51.553Z,16.88
2022-10-01T12:05:23.416Z,16.81
2022-10-01T12:07:54.773Z,16.77
2022-10-01T12:10:38.679Z,16.72
2022-10-01T12:13:19.153Z,16.71
2022-10-01T12:15:53.374Z,16.75
2022-10-01T12:18:31.240Z,16.82
2022-10-01T12:21:03.533Z,16.87
2022-10-01T12:23:39.706Z,16.89
2022-10-01T12:26:17.746Z,16.88
2022-10-01T12:28:59.931Z,16.89
2022-10-01T12:31:35.966Z,16.89
2022-10-01T12:34:15.957Z,16.87
2022-10-01T12:36:55.153Z,16.84
2022-10-01T12:39:31.821Z,16.82
2022-10-01T12:42:14.753Z,16.80
2022-10-01T12:44:56.582Z,16.78
2022-10-01T12:47:38.685Z,16.74
2022-10-01T12:50:13.844Z,16.72
2022-10-01T12:52:53.699Z,16.66
2022-10-01T12:55:33.581Z,16.63
2022-10-01T12:58:12.405Z,16.62
2022-10-01T13:00:50.044Z,16.61
2022-10-01T13:03:36.843Z,16.60
2022-10-01T13:06:33.207Z,16.59
2022-10-01T13:09:13.551Z,16.57
2022-10-01T13:12:00.622Z,16.59
2022-10-01T13:14:32.527Z,16.61
2022-10-01T13:17:02.384Z,16.63
2022-10-01T13:19:40.821Z,16.66
2022-10-01T13:22:18.988Z,16.71
2022-10-01T13:24:55.289Z,16.76
2022-10-01T13:27:32.421Z,16.81
2022-10-01T13:30:05.425Z,16.83
2022-10-01T13:32:36.667Z,16.85
2022-10-01T13:35:23.726Z,16.87
2022-10-01T13:37:52.907Z,16.88
2022-10-01T13:40:29.952Z,16.88
2022-10-01T13:43:01.835Z,16.89
2022-10-01T13:45:39.333Z,16.93
2022-10-01T13:48:15.955Z,16.96
2022-10-01T13:50:57.052Z,17.00
2022-10-01T13:53:29.015Z,17.02
2022-10-01T13:55:58.273Z,17.00
2022-10-01T13:58:36.714Z,17.01
2022-10-01T14:01:25.620Z,16.99
2022-10-01T14:04:03.257Z,16.95
2022-10-01T14:06:42.018Z,16.94
2022-10-01T14:09:16.312Z,16.93
2022-10-01T14:12:06.088Z,16.92
2022-10-01T14:14:55.611Z,16.90
2022-10-01T14:17:27.672Z,16.89
2022-10-01T14:19:58.675Z,16.90
2022-10-01T14:22:38.764Z,16.90
2022-10-01T14:25:31.094Z,16.90
2022-10-01T14:28:12.145Z,16.89
2022-10-01T14:30:48.503Z,16.90
2022-10-01T14:33:35.122Z,16.91
2022-10-01T14:36:10.076Z,16.89
2022-10-01T14:38:38.914Z,16.87
2022-10-01T14:41:18.018Z,16.82
2022-10-01T14:43:47.802Z,16.76
2022-10-01T14:46:18.080Z,16.71
2022-10-01T14:48:58.012Z,16.63
2022-10-01T14:51:28.451Z,16.55
2022-10-01T14:53:59.868Z,16.46
2022-10-01T14:56:29.086Z,16.38
2022-10-01T14:59:02.229Z,16.33
2022-10-01T15:01:30.798Z,16.24
2022-10-01T15:03:59.736Z,16.16
2022-10-01T15:06:29.227Z,16.10
2022-10-01T15:09:13.672Z,16.06
2022-10-01T15:11:44.932Z,16.01
2022-10-01T15:14:17.531Z,15.95
2022-10-01T15:16:48.550Z,15.90
2022-10-01T15:19:20.385Z,15.84
2022-10-01T15:21:50.959Z,15.77
2022-10-01T15:24:28.761Z,15.69
2022-10-01T15:26:58.325Z,15.60
2022-10-01T15:29:27.380Z,15.50
2022-10-01T15:31:58.066Z,15.42
2022-10-01T15:34:27.719Z,15.34
2022-10-01T15:36:56.547Z,15.29
2022-10-01T15:39:35.384Z,15.24
2022-10-01T15:42:08.436Z,15.17
2022-10-01T15:44:49.754Z,15.12
2022-10-01T15:47:32.751Z,15.07
2022-10-01T15:50:19.366Z,15.02
2022-10-01T15:53:06.253Z,14.96
2022-10-01T15:55:39.650Z,14.92
2022-10-01T15:58:17.031Z,14.88
2022-10-01T16:00:58.890Z,14.83
2022-10-01T16:03:34.748Z,14.81
2022-10-01T16:06:22.348Z,14.76
2022-10-01T16:09:01.406Z,14.72
2022-10-01T16:11:51.249Z,14.69
2022-10-01T16:14:29.603Z,14.66
2022-10-01T16:17:27.394Z,14.64
2022-10-01T16:19:58.547Z,14.45
2022-10-01T16:22:31.045Z,14.15
2022-10-01T16:25:01.574Z,13.84
2022-10-01T16:27:35.082Z,13.56
2022-10-01T16:30:11.791Z,13.32
2022-10-01T16:32:40.323Z,13.11
2022-10-01T16:35:20.258Z,12.94
2022-10-01T16:37:50.713Z,12.79
2022-10-01T16:40:20.592Z,12.67
2022-10-01T16:42:50.287Z,12.57
2022-10-01T16:45:21.865Z,12.50
2022-10-01T16:47:51.226Z,12.44
2022-10-01T16:50:21.427Z,12.36
2022-10-01T16:52:52.744Z,12.27
2022-10-01T16:55:23.413Z,12.21
2022-10-01T16:57:53.880Z,12.16
2022-10-01T17:00:24.965Z,12.08
2022-10-01T17:02:55.653Z,11.97
2022-10-01T17:05:26.115Z,11.87
2022-10-01T17:07:57.073Z,11.78
2022-10-01T17:10:26.695Z,11.68
2022-10-01T17:12:55.990Z,11.61
2022-10-01T17:15:26.476Z,11.54
2022-10-01T17:17:56.094Z,11.47
2022-10-01T17:20:27.793Z,11.43
2022-10-01T17:22:57.310Z,11.40
2022-10-01T17:25:30.408Z,11.35
2022-10-01T17:28:00.276Z,11.32
2022-10-01T17:30:29.073Z,11.30
2022-10-01T17:32:59.244Z,11.28
2022-10-01T17:35:29.235Z,11.25
2022-10-01T17:37:58.401Z,11.25
2022-10-01T17:40:27.423Z,11.26
2022-10-01T17:42:56.370Z,11.28
2022-10-01T17:45:25.071Z,11.30
2022-10-01T17:47:53.964Z,11.31
2022-10-01T17:50:22.935Z,11.32
2022-10-01T17:52:51.560Z,11.31
2022-10-01T17:55:23.111Z,11.30
2022-10-01T17:57:52.592Z,11.28
2022-10-01T18:00:22.190Z,11.26
2022-10-01T18:02:50.725Z,11.25
2022-10-01T18:05:21.341Z,11.26
2022-10-01T18:07:50.473Z,11.27
2022-10-01T18:10:19.304Z,11.29
2022-10-01T18:12:48.336Z,11.29
2022-10-01T18:15:19.807Z,11.30
2022-10-01T18:17:51.747Z,11.31
2022-10-01T18:20:21.699Z,11.32
2022-10-01T18:22:51.092Z,11.34
2022-10-01T18:25:24.227Z,11.36
2022-10-01T18:27:57.286Z,11.35
2022-10-01T18:30:29.041Z,11.37
2022-10-01T18:33:02.806Z,11.40
2022-10-01T18:35:39.944Z,11.43
2022-10-01T18:38:20.122Z,11.44
2022-10-01T18:40:56.826Z,11.43
2022-10-01T18:43:36.230Z,11.44
2022-10-01T18:46:19.567Z,11.44
2022-10-01T18:49:14.292Z,11.44
2022-10-01T18:52:06.867Z,11.45
2022-10-01T18:55:00.146Z,11.44
2022-10-01T18:57:51.096Z,11.44
2022-10-01T19:00:28.099Z,11.44
2022-10-01T19:03:25.128Z,11.45
2022-10-01T19:06:15.326Z,11.44
2022-10-01T19:09:01.696Z,11.43
2022-10-01T19:11:49.237Z,11.42
2022-10-01T19:14:37.799Z,11.41
2022-10-01T19:17:22.413Z,11.40
2022-10-01T19:20:05.776Z,11.38
2022-10-01T19:22:51.668Z,11.36
2022-10-01T19:25:26.847Z,11.34
2022-10-01T19:28:10.009Z,11.33
2022-10-01T19:30:51.819Z,11.33
2022-10-01T19:33:22.348Z,11.32
2022-10-01T19:35:56.599Z,11.29
2022-10-01T19:38:29.126Z,11.27
2022-10-01T19:41:01.240Z,11.26
2022-10-01T19:43:37.611Z,11.27
2022-10-01T19:46:12.336Z,11.28
2022-10-01T19:48:47.557Z,11.29
2022-10-01T19:51:20.909Z,11.30
2022-10-01T19:53:55.825Z,11.31
2022-10-01T19:56:27.856Z,11.32
2022-10-01T19:58:57.033Z,11.33
2022-10-01T20:01:34.034Z,11.35
2022-10-01T20:04:11.011Z,11.36
2022-10-01T20:06:43.793Z,11.38
2022-10-01T20:09:23.066Z,11.39
2022-10-01T20:11:59.275Z,11.40
2022-10-01T20:15:03.188Z,11.40
2022-10-01T20:17:37.623Z,11.39
2022-10-01T20:20:16.619Z,11.38
2022-10-01T20:23:00.107Z,11.37
2022-10-01T20:25:39.194Z,11.35
2022-10-01T20:28:15.726Z,11.32
2022-10-01T20:30:56.462Z,11.32
2022-10-01T20:33:34.317Z,11.31
2022-10-01T20:36:11.253Z,11.32
2022-10-01T20:38:45.512Z,11.35
2022-10-01T20:41:17.420Z,11.36
2022-10-01T20:43:52.455Z,11.36
2022-10-01T20:46:26.159Z,11.37
2022-10-01T20:49:01.554Z,11.39
2022-10-01T20:51:47.561Z,11.39
2022-10-01T20:54:21.899Z,11.39
2022-10-01T20:57:06.771Z,11.40
2022-10-01T20:59:41.057Z,11.42
2022-10-01T21:02:28.524Z,11.42
2022-10-01T21:05:06.520Z,11.44
2022-10-01T21:07:41.959Z,11.45
2022-10-01T21:10:22.186Z,11.44
2022-10-01T21:13:05.034Z,11.45
2022-10-01T21:15:47.519Z,11.44
2022-10-01T21:18:25.456Z,11.43
2022-10-01T21:21:07.795Z,11.43
2022-10-01T21:23:51.800Z,11.42
2022-10-01T21:26:34.893Z,11.41
2022-10-01T21:29:27.580Z,11.40
2022-10-01T21:32:11.978Z,11.39
2022-10-01T21:34:54.729Z,11.38
2022-10-01T21:37:29.414Z,11.37
2022-10-01T21:40:17.150Z,11.37
2022-10-01T21:43:01.040Z,11.37
2022-10-01T21:45:38.539Z,11.37
2022-10-01T21:48:25.551Z,11.38
2022-10-01T21:50:59.698Z,11.37
2022-10-01T21:53:44.246Z,11.36
2022-10-01T21:56:23.618Z,11.31
2022-10-01T21:59:05.262Z,11.28
2022-10-01T22:01:55.196Z,11.26
2022-10-01T22:04:31.827Z,11.25
2022-10-01T22:07:12.469Z,11.24
2022-10-01T22:09:49.563Z,11.24
2022-10-01T22:12:19.362Z,11.24
2022-10-01T22:14:51.369Z,11.24
2022-10-01T22:17:24.832Z,11.24
2022-10-01T22:19:57.203Z,11.24
2022-10-01T22:22:30.782Z,11.23
2022-10-01T22:25:00.914Z,11.22
2022-10-01T22:27:36.447Z,11.20
2022-10-01T22:30:12.085Z,11.18
2022-10-01T22:32:45.427Z,11.16
2022-10-01T22:35:19.755Z,11.14
2022-10-01T22:37:53.156Z,11.15
2022-10-01T22:40:28.098Z,11.15
2022-10-01T22:43:03.027Z,11.15
2022-10-01T22:45:52.200Z,11.15
2022-10-01T22:48:36.992Z,11.15
2022-10-01T22:51:20.605Z,11.17
2022-10-01T22:54:08.853Z,11.19
2022-10-01T22:56:48.122Z,11.21
2022-10-01T22:59:31.905Z,11.23
2022-10-01T23:02:07.174Z,11.25
2022-10-01T23:04:53.586Z,11.27
2022-10-01T23:07:31.442Z,11.30
2022-10-01T23:10:08.946Z,11.31
2022-10-01T23:12:46.152Z,11.33
2022-10-01T23:15:27.618Z,11.36
2022-10-01T23:18:03.381Z,11.38
2022-10-01T23:20:35.571Z,11.38
2022-10-01T23:23:10.453Z,11.40
2022-10-01T23:25:49.380Z,11.39
2022-10-01T23:28:32.782Z,11.39
2022-10-01T23:31:10.392Z,11.39
2022-10-01T23:33:58.825Z,11.39
2022-10-01T23:36:44.257Z,11.39
2022-10-01T23:39:45.108Z,11.39
2022-10-01T23:42:28.559Z,11.39
2022-10-01T23:45:08.690Z,11.39
2022-10-01T23:47:42.976Z,11.39
2022-10-01T23:50:22.064Z,11.37
2022-10-01T23:52:59.501Z,11.36
2022-10-01T23:55:56.698Z,11.36
2022-10-01T23:58:28.431Z,11.36
